Guilford, New York
Current Conditions -  °F | °C
As of 7:15 AM on Friday 28 Nov 2014 (Local Time) from KBGM Reporting Station
Light Snow Light Snow  
Wind Chill: 24°   Ceiling: 1300
Heat Index: 34°   Visibility: 2.5mi
Dew Point: 19°   Wind: 15mph
Humidity: 54%   Direction: 300°WNW
Pressure: 30.1"   Gusts: 25mph
Location:  42.4°N, 75.49°W
Report Text: KBGM 281215Z 30013G22KT 2 1/2SM -SN SCT008 BKN013 OVC029 01/M07 A3010 RMK AO2 P0000 T00111072
Loading
Personal Weather Stations






























Interactive Weather Map New forecast layout! Learn more

10-Day Weather Forecast

Advertisements
Track Severe Weather on mobile